createdAt,value
2019-04-01T00:00:27.188Z,8.20
2019-04-01T00:02:57.503Z,7.67
2019-04-01T00:05:25.891Z,7.42
2019-04-01T00:07:54.497Z,8.20
2019-04-01T00:10:23.244Z,8.28
2019-04-01T00:12:51.623Z,8.55
2019-04-01T00:15:20.335Z,7.40
2019-04-01T00:17:48.651Z,10.48
2019-04-01T00:20:17.324Z,8.18
2019-04-01T00:22:45.748Z,6.60
2019-04-01T00:25:14.014Z,6.75
2019-04-01T00:27:42.499Z,7.50
2019-04-01T00:30:10.898Z,7.90
2019-04-01T00:32:39.231Z,8.00
2019-04-01T00:35:08.051Z,7.17
2019-04-01T00:37:36.484Z,8.73
2019-04-01T00:40:05.028Z,7.03
2019-04-01T00:42:41.703Z,8.15
2019-04-01T00:45:13.466Z,7.50
2019-04-01T00:47:41.756Z,7.50
2019-04-01T00:50:10.353Z,9.33
2019-04-01T00:52:38.909Z,7.60
2019-04-01T00:55:07.614Z,8.25
2019-04-01T00:57:35.973Z,7.80
2019-04-01T01:00:05.753Z,7.15
2019-04-01T01:02:34.266Z,6.77
2019-04-01T01:05:04.929Z,8.88
2019-04-01T01:07:33.447Z,7.40
2019-04-01T01:10:02.336Z,7.30
2019-04-01T01:12:31.507Z,6.80
2019-04-01T01:15:00.355Z,7.10
2019-04-01T01:19:58.790Z,6.55
2019-04-01T01:22:27.257Z,5.95
2019-04-01T01:24:56.184Z,6.22
2019-04-01T01:27:24.539Z,7.20
2019-04-01T01:29:53.504Z,6.87
2019-04-01T01:32:21.808Z,6.33
2019-04-01T01:34:50.217Z,5.95
2019-04-01T01:37:18.647Z,6.60
2019-04-01T01:39:47.334Z,6.60
2019-04-01T01:42:15.760Z,6.60
2019-04-01T01:44:44.408Z,7.15
2019-04-01T01:47:12.788Z,6.60
2019-04-01T01:49:41.183Z,6.28
2019-04-01T01:52:09.580Z,6.30
2019-04-01T01:54:38.171Z,6.65
2019-04-01T01:57:07.208Z,7.05
2019-04-01T01:59:35.474Z,6.67
2019-04-01T02:02:05.013Z,6.83
2019-04-01T02:04:33.578Z,6.10
2019-04-01T02:07:04.428Z,6.33
2019-04-01T02:09:32.781Z,7.28
2019-04-01T02:12:01.975Z,8.00
2019-04-01T02:14:30.468Z,6.65
2019-04-01T02:16:59.212Z,7.80
2019-04-01T02:19:27.835Z,7.25
2019-04-01T02:21:56.372Z,8.28
2019-04-01T02:24:25.305Z,9.03
2019-04-01T02:26:53.981Z,8.15
2019-04-01T02:29:22.581Z,7.25
2019-04-01T02:31:51.266Z,8.58
2019-04-01T02:34:19.941Z,7.25
2019-04-01T02:36:49.034Z,7.72
2019-04-01T02:39:17.338Z,6.70
2019-04-01T02:41:45.582Z,6.90
2019-04-01T02:44:14.098Z,7.25
2019-04-01T02:46:42.802Z,6.72
2019-04-01T02:49:11.142Z,6.20
2019-04-01T02:51:39.527Z,6.78
2019-04-01T02:54:08.234Z,6.87
2019-04-01T02:56:36.925Z,6.62
2019-04-01T02:59:05.173Z,6.00
2019-04-01T03:01:33.773Z,8.13
2019-04-01T03:04:02.374Z,8.20
2019-04-01T03:06:31.095Z,7.35
2019-04-01T03:09:01.373Z,6.53
2019-04-01T03:11:30.079Z,7.50
2019-04-01T03:13:58.628Z,6.87
2019-04-01T03:16:26.918Z,7.20
2019-04-01T03:18:55.721Z,7.70
2019-04-01T03:21:27.506Z,7.50
2019-04-01T03:23:55.877Z,7.78
2019-04-01T03:26:24.811Z,9.70
2019-04-01T03:28:53.237Z,9.70
2019-04-01T03:31:21.669Z,10.80
2019-04-01T03:33:50.325Z,10.18
2019-04-01T03:36:18.726Z,9.08
2019-04-01T03:38:47.077Z,9.00
2019-04-01T03:41:15.417Z,8.58
2019-04-01T03:43:43.825Z,8.73
2019-04-01T03:46:12.096Z,9.48
2019-04-01T03:48:40.936Z,9.60
2019-04-01T03:51:09.197Z,10.75
2019-04-01T03:53:38.041Z,9.68
2019-04-01T03:56:06.634Z,10.00
2019-04-01T03:58:35.306Z,10.45
2019-04-01T04:01:04.578Z,9.83
2019-04-01T04:03:33.049Z,9.65
2019-04-01T04:06:01.965Z,9.28
2019-04-01T04:08:39.304Z,9.40
2019-04-01T04:11:09.723Z,9.08
2019-04-01T04:13:38.484Z,10.88
2019-04-01T04:16:07.249Z,9.18
2019-04-01T04:18:36.377Z,8.75
2019-04-01T04:21:04.850Z,9.83
2019-04-01T04:23:33.562Z,8.63
2019-04-01T04:26:03.357Z,9.20
2019-04-01T04:28:32.346Z,8.67
2019-04-01T04:31:00.795Z,8.20
2019-04-01T04:33:29.958Z,9.03
2019-04-01T04:35:58.541Z,8.10
2019-04-01T04:38:27.757Z,9.13
2019-04-01T04:40:57.257Z,9.37
2019-04-01T04:43:25.846Z,11.55
2019-04-01T04:45:54.203Z,11.93
2019-04-01T04:48:23.657Z,11.05
2019-04-01T04:50:52.529Z,11.63
2019-04-01T04:53:21.472Z,10.58
2019-04-01T04:55:50.651Z,10.75
2019-04-01T04:58:19.577Z,12.60
2019-04-01T05:00:48.194Z,12.68
2019-04-01T05:03:16.761Z,13.20
2019-04-01T05:05:45.697Z,13.58
2019-04-01T05:08:14.387Z,12.50
2019-04-01T05:10:43.397Z,12.68
2019-04-01T05:13:13.779Z,9.78
2019-04-01T05:15:42.798Z,10.98
2019-04-01T05:18:11.494Z,9.20
2019-04-01T05:20:41.089Z,8.00
2019-04-01T05:23:11.389Z,7.72
2019-04-01T05:25:41.031Z,7.40
2019-04-01T05:28:13.167Z,7.40
2019-04-01T05:30:43.384Z,7.60
2019-04-01T05:33:15.742Z,7.47
2019-04-01T05:35:44.284Z,7.40
2019-04-01T05:38:13.162Z,7.85
2019-04-01T05:40:41.915Z,8.95
2019-04-01T05:43:11.189Z,8.05
2019-04-01T05:45:39.550Z,8.70
2019-04-01T05:48:08.750Z,9.60
2019-04-01T05:50:37.147Z,6.80
2019-04-01T05:53:05.935Z,7.37
2019-04-01T05:55:34.945Z,5.75
2019-04-01T05:58:03.694Z,5.78
2019-04-01T06:00:45.544Z,6.35
2019-04-01T06:03:14.073Z,5.22
2019-04-01T06:05:42.803Z,7.35
2019-04-01T06:08:11.780Z,6.53
2019-04-01T06:10:40.910Z,9.78
2019-04-01T06:13:09.455Z,10.03
2019-04-01T06:15:40.019Z,10.30
2019-04-01T06:18:08.520Z,10.10
2019-04-01T06:20:37.489Z,10.35
2019-04-01T06:23:06.247Z,11.08
2019-04-01T06:25:35.412Z,9.45
2019-04-01T06:28:04.761Z,9.23
2019-04-01T06:30:33.704Z,8.33
2019-04-01T06:33:02.127Z,8.20
2019-04-01T06:35:31.155Z,8.58
2019-04-01T06:37:59.928Z,9.70
2019-04-01T06:40:30.407Z,7.72
2019-04-01T06:43:00.074Z,7.87
2019-04-01T06:45:29.375Z,7.70
2019-04-01T06:47:58.259Z,7.28
2019-04-01T06:50:26.996Z,8.00
2019-04-01T06:52:55.593Z,8.30
2019-04-01T06:55:24.605Z,6.78
2019-04-01T06:57:53.178Z,6.90
2019-04-01T07:00:22.214Z,7.47
2019-04-01T07:02:51.374Z,7.53
2019-04-01T07:05:20.166Z,7.40
2019-04-01T07:07:48.883Z,7.95
2019-04-01T07:10:17.427Z,6.72
2019-04-01T07:12:46.419Z,6.83
2019-04-01T07:15:14.765Z,5.37
2019-04-01T07:17:45.295Z,6.30
2019-04-01T07:20:14.309Z,5.67
2019-04-01T07:22:43.060Z,4.78
2019-04-01T07:25:11.696Z,5.28
2019-04-01T07:27:40.555Z,5.08
2019-04-01T07:30:09.696Z,4.70
2019-04-01T07:32:38.632Z,4.00
2019-04-01T07:35:07.324Z,4.22
2019-04-01T07:37:36.352Z,3.50
2019-04-01T07:40:05.718Z,3.47
2019-04-01T07:42:34.743Z,3.10
2019-04-01T07:45:04.163Z,3.37
2019-04-01T07:47:32.981Z,3.10
2019-04-01T07:50:02.262Z,3.30
2019-04-01T07:52:31.435Z,4.47
2019-04-01T07:55:00.538Z,3.45
2019-04-01T07:57:32.626Z,4.42
2019-04-01T08:00:00.516Z,3.15
2019-04-01T08:02:30.329Z,3.40
2019-04-01T08:04:59.570Z,3.08
2019-04-01T08:07:28.698Z,3.10
2019-04-01T08:09:57.374Z,2.85
2019-04-01T08:12:27.951Z,2.65
2019-04-01T08:14:56.854Z,3.17
2019-04-01T08:17:25.316Z,3.12
2019-04-01T08:19:55.999Z,3.33
2019-04-01T08:22:24.944Z,3.10
2019-04-01T08:24:53.903Z,2.55
2019-04-01T08:27:22.735Z,3.75
2019-04-01T08:29:51.204Z,3.00
2019-04-01T08:32:19.722Z,3.22
2019-04-01T08:34:49.330Z,2.75
2019-04-01T08:37:18.127Z,3.10
2019-04-01T08:39:47.105Z,2.98
2019-04-01T08:42:16.124Z,3.10
2019-04-01T08:44:44.608Z,2.92
2019-04-01T08:47:13.063Z,3.15
2019-04-01T08:49:41.765Z,2.77
2019-04-01T08:52:10.144Z,3.30
2019-04-01T08:54:38.674Z,2.52
2019-04-01T08:57:07.088Z,3.12
2019-04-01T08:59:36.196Z,2.85
2019-04-01T09:02:16.988Z,2.80
2019-04-01T09:04:36.021Z,2.90
2019-04-01T09:07:04.789Z,3.00
2019-04-01T09:09:34.424Z,2.83
2019-04-01T09:12:04.536Z,2.77
2019-04-01T09:14:34.704Z,2.42
2019-04-01T09:17:04.996Z,2.80
2019-04-01T09:19:33.297Z,3.30
2019-04-01T09:22:04.610Z,2.30
2019-04-01T09:24:33.231Z,3.02
2019-04-01T09:27:01.991Z,2.90
2019-04-01T09:29:30.633Z,2.87
2019-04-01T09:31:59.748Z,2.02
2019-04-01T09:34:28.560Z,2.45
2019-04-01T09:36:57.384Z,2.50
2019-04-01T09:39:25.938Z,2.25
2019-04-01T09:41:54.382Z,2.45
2019-04-01T09:44:36.089Z,2.45
2019-04-01T09:46:53.203Z,2.30
2019-04-01T09:49:22.218Z,2.60
2019-04-01T09:51:51.314Z,2.15
2019-04-01T09:54:20.057Z,3.10
2019-04-01T09:56:48.461Z,2.42
2019-04-01T09:59:17.091Z,2.65
2019-04-01T10:01:45.712Z,2.62
2019-04-01T10:04:14.333Z,2.27
2019-04-01T10:06:42.759Z,2.25
2019-04-01T10:09:11.747Z,2.70
2019-04-01T10:11:40.087Z,2.72
2019-04-01T10:14:08.606Z,2.10
2019-04-01T10:16:37.646Z,1.77
2019-04-01T10:19:06.197Z,2.10
2019-04-01T10:21:35.621Z,1.72
2019-04-01T10:24:06.436Z,1.35
2019-04-01T10:26:35.017Z,1.95
2019-04-01T10:29:04.220Z,1.95
2019-04-01T10:31:32.704Z,1.90
2019-04-01T10:34:02.610Z,1.60
2019-04-01T10:36:31.310Z,2.10
2019-04-01T10:38:59.686Z,2.08
2019-04-01T10:41:28.321Z,1.80
2019-04-01T10:43:56.914Z,1.77
2019-04-01T10:46:25.483Z,1.80
2019-04-01T10:48:54.145Z,1.85
2019-04-01T10:51:22.651Z,1.85
2019-04-01T10:53:51.139Z,1.85
2019-04-01T10:56:20.656Z,1.80
2019-04-01T10:58:49.407Z,1.35
2019-04-01T11:01:18.275Z,1.70
2019-04-01T11:03:46.528Z,1.70
2019-04-01T11:06:15.643Z,1.80
2019-04-01T11:08:44.498Z,1.42
2019-04-01T11:11:13.239Z,2.12
2019-04-01T11:13:41.848Z,1.90
2019-04-01T11:16:10.304Z,1.50
2019-04-01T11:18:38.998Z,2.08
2019-04-01T11:21:07.628Z,1.80
2019-04-01T11:23:36.117Z,2.10
2019-04-01T11:26:07.160Z,1.62
2019-04-01T11:28:35.555Z,1.30
2019-04-01T11:31:05.314Z,1.80
2019-04-01T11:33:33.834Z,2.80
2019-04-01T11:36:02.695Z,1.95
2019-04-01T11:38:31.937Z,1.82
2019-04-01T11:41:00.654Z,1.40
2019-04-01T11:43:29.709Z,2.00
2019-04-01T11:45:58.658Z,1.50
2019-04-01T11:48:27.270Z,1.27
2019-04-01T11:50:55.650Z,1.57
2019-04-01T11:53:24.637Z,1.32
2019-04-01T11:55:53.289Z,1.75
2019-04-01T11:58:21.763Z,1.37
2019-04-01T12:00:54.310Z,1.20
2019-04-01T12:03:23.390Z,1.70
2019-04-01T12:05:52.407Z,1.30
2019-04-01T12:08:21.368Z,1.62
2019-04-01T12:10:50.053Z,1.90
2019-04-01T12:13:18.740Z,1.47
2019-04-01T12:15:47.074Z,1.70
2019-04-01T12:18:15.682Z,1.55
2019-04-01T12:20:44.039Z,1.60
2019-04-01T12:23:12.726Z,1.15
2019-04-01T12:25:41.503Z,1.50
2019-04-01T12:28:12.600Z,1.32
2019-04-01T12:30:41.847Z,1.40
2019-04-01T12:33:10.635Z,1.30
2019-04-01T12:35:38.926Z,1.30
2019-04-01T12:38:07.714Z,1.20
2019-04-01T12:40:36.943Z,1.55
2019-04-01T12:43:06.815Z,1.17
2019-04-01T12:45:35.744Z,1.30
2019-04-01T12:48:06.018Z,1.57
2019-04-01T12:50:34.390Z,1.32
2019-04-01T12:53:03.537Z,1.00
2019-04-01T12:55:31.895Z,1.05
2019-04-01T12:58:00.574Z,1.02
2019-04-01T13:00:29.633Z,1.25
2019-04-01T13:02:58.580Z,1.22
2019-04-01T13:05:26.940Z,1.12
2019-04-01T13:07:55.260Z,1.20
2019-04-01T13:10:23.788Z,1.15
2019-04-01T13:12:54.101Z,1.57
2019-04-01T13:17:50.999Z,1.10
2019-04-01T13:20:19.717Z,1.32
2019-04-01T13:22:48.376Z,1.22
2019-04-01T13:25:17.085Z,1.00
2019-04-01T13:27:46.659Z,1.45
2019-04-01T13:30:17.350Z,1.20
2019-04-01T13:32:45.923Z,0.90
2019-04-01T13:35:15.129Z,1.25
2019-04-01T13:37:43.547Z,1.10
2019-04-01T13:40:12.900Z,1.42
2019-04-01T13:42:43.323Z,1.00
2019-04-01T13:47:41.374Z,1.07
2019-04-01T13:50:10.458Z,1.00
2019-04-01T13:52:39.031Z,1.57
2019-04-01T13:55:09.903Z,1.45
2019-04-01T13:57:38.311Z,1.20
2019-04-01T14:00:07.641Z,1.07
2019-04-01T14:02:35.939Z,1.05
2019-04-01T14:05:06.443Z,1.42
2019-04-01T14:10:04.228Z,1.82
2019-04-01T14:12:34.995Z,1.32
2019-04-01T14:15:04.337Z,1.40
2019-04-01T14:17:32.644Z,1.35
2019-04-01T14:20:02.782Z,1.67
2019-04-01T14:22:31.573Z,1.30
2019-04-01T14:25:00.261Z,1.37
2019-04-01T14:27:30.177Z,1.30
2019-04-01T14:29:58.543Z,1.30
2019-04-01T14:32:28.717Z,1.40
2019-04-01T14:34:57.289Z,1.30
2019-04-01T14:37:29.869Z,1.10
2019-04-01T14:39:56.431Z,1.85
2019-04-01T14:42:25.131Z,1.25
2019-04-01T14:44:58.328Z,1.10
2019-04-01T14:47:26.985Z,1.10
2019-04-01T14:49:55.448Z,1.52
2019-04-01T14:52:32.402Z,1.12
2019-04-01T14:54:55.171Z,1.27
2019-04-01T14:57:23.899Z,0.90
2019-04-01T14:59:56.114Z,1.12
2019-04-01T15:02:22.888Z,1.10
2019-04-01T15:04:51.912Z,1.62
2019-04-01T15:07:20.531Z,1.60
2019-04-01T15:09:49.580Z,1.20
2019-04-01T15:12:18.337Z,1.25
2019-04-01T15:14:46.980Z,1.17
2019-04-01T15:17:15.547Z,1.75
2019-04-01T15:19:43.984Z,1.47
2019-04-01T15:22:12.628Z,1.70
2019-04-01T15:24:41.094Z,1.20
2019-04-01T15:27:10.090Z,2.33
2019-04-01T15:29:38.408Z,1.17
2019-04-01T15:32:06.847Z,1.72
2019-04-01T15:34:37.391Z,1.05
2019-04-01T15:37:06.318Z,1.10
2019-04-01T15:39:34.903Z,0.80
2019-04-01T15:42:04.628Z,0.98
2019-04-01T15:44:33.568Z,0.97
2019-04-01T15:47:04.520Z,1.25
2019-04-01T15:49:32.851Z,1.35
2019-04-01T15:52:01.502Z,1.25
2019-04-01T15:54:30.206Z,1.30
2019-04-01T15:56:58.625Z,1.72
2019-04-01T15:59:27.054Z,1.40
2019-04-01T16:01:55.898Z,1.15
2019-04-01T16:04:24.311Z,1.42
2019-04-01T16:06:52.703Z,1.35
2019-04-01T16:09:22.344Z,1.20
2019-04-01T16:11:54.142Z,1.55
2019-04-01T16:14:22.167Z,1.47
2019-04-01T16:16:50.915Z,1.22
2019-04-01T16:19:19.543Z,1.40
2019-04-01T16:21:47.940Z,1.10
2019-04-01T16:24:16.647Z,1.30
2019-04-01T16:26:44.967Z,1.62
2019-04-01T16:29:13.598Z,1.70
2019-04-01T16:31:42.063Z,1.40
2019-04-01T16:34:10.999Z,1.50
2019-04-01T16:36:41.389Z,1.45
2019-04-01T16:39:10.060Z,1.82
2019-04-01T16:41:38.395Z,1.65
2019-04-01T16:44:07.121Z,1.77
2019-04-01T16:46:35.756Z,1.50
2019-04-01T16:49:05.030Z,1.60
2019-04-01T16:51:34.505Z,1.62
2019-04-01T16:54:04.816Z,1.30
2019-04-01T16:56:33.123Z,1.50
2019-04-01T16:59:01.579Z,1.62
2019-04-01T17:01:30.271Z,1.57
2019-04-01T17:03:58.979Z,1.77
2019-04-01T17:06:27.659Z,1.67
2019-04-01T17:08:56.438Z,1.77
2019-04-01T17:11:24.750Z,1.85
2019-04-01T17:13:53.068Z,1.80
2019-04-01T17:16:21.824Z,1.60
2019-04-01T17:18:50.418Z,2.05
2019-04-01T17:21:19.283Z,1.60
2019-04-01T17:23:47.854Z,2.00
2019-04-01T17:26:16.247Z,1.50
2019-04-01T17:28:45.235Z,2.20
2019-04-01T17:31:13.944Z,2.42
2019-04-01T17:33:42.546Z,3.02
2019-04-01T17:36:11.233Z,3.33
2019-04-01T17:38:41.815Z,3.22
2019-04-01T17:41:10.739Z,3.27
2019-04-01T17:43:39.521Z,2.55
2019-04-01T17:46:09.032Z,2.98
2019-04-01T17:48:37.784Z,3.80
2019-04-01T17:51:06.419Z,3.30
2019-04-01T17:53:34.725Z,3.95
2019-04-01T17:56:04.950Z,4.20
2019-04-01T17:58:33.897Z,3.33
2019-04-01T18:01:02.506Z,3.33
2019-04-01T18:03:31.178Z,3.00
2019-04-01T18:05:59.938Z,2.92
2019-04-01T18:08:29.635Z,2.65
2019-04-01T18:10:58.136Z,3.92
2019-04-01T18:13:26.600Z,3.42
2019-04-01T18:15:57.393Z,3.45
2019-04-01T18:18:27.516Z,3.47
2019-04-01T18:20:56.157Z,3.47
2019-04-01T18:23:26.288Z,3.95
2019-04-01T18:25:55.174Z,4.12
2019-04-01T18:28:23.851Z,3.65
2019-04-01T18:30:52.437Z,4.08
2019-04-01T18:33:20.921Z,4.17
2019-04-01T18:35:49.280Z,4.25
2019-04-01T18:38:17.628Z,4.97
2019-04-01T18:40:48.182Z,5.50
2019-04-01T18:43:16.594Z,4.87
2019-04-01T18:45:45.258Z,4.90
2019-04-01T18:48:14.833Z,4.65
2019-04-01T18:50:43.849Z,5.60
2019-04-01T18:53:12.469Z,6.33
2019-04-01T18:55:40.890Z,6.70
2019-04-01T18:58:10.327Z,7.12
2019-04-01T19:00:38.934Z,5.53
2019-04-01T19:03:07.914Z,6.80
2019-04-01T19:05:36.560Z,7.75
2019-04-01T19:08:04.929Z,7.78
2019-04-01T19:10:33.417Z,7.85
2019-04-01T19:13:06.547Z,7.62
2019-04-01T19:15:33.376Z,9.00
2019-04-01T19:18:02.775Z,9.50
2019-04-01T19:20:31.768Z,9.30
2019-04-01T19:23:02.192Z,9.30
2019-04-01T19:27:59.430Z,9.13
2019-04-01T19:30:27.899Z,9.30
2019-04-01T19:32:56.512Z,9.20
2019-04-01T19:35:24.814Z,8.98
2019-04-01T19:37:53.232Z,9.03
2019-04-01T19:40:23.552Z,8.23
2019-04-01T19:42:54.018Z,8.28
2019-04-01T19:45:22.540Z,8.43
2019-04-01T19:47:51.053Z,10.80
2019-04-01T19:50:20.155Z,10.78
2019-04-01T19:52:49.057Z,10.35
2019-04-01T19:55:18.317Z,10.15
2019-04-01T19:57:47.060Z,9.83
2019-04-01T20:00:27.632Z,9.78
2019-04-01T20:02:47.565Z,9.10
2019-04-01T20:05:15.996Z,11.35
2019-04-01T20:07:44.908Z,9.90
2019-04-01T20:10:14.032Z,9.15
2019-04-01T20:12:42.800Z,10.18
2019-04-01T20:15:12.535Z,9.73
2019-04-01T20:17:41.294Z,11.03
2019-04-01T20:20:10.411Z,10.53
2019-04-01T20:22:40.358Z,9.93
2019-04-01T20:25:09.584Z,10.75
2019-04-01T20:27:38.202Z,10.53
2019-04-01T20:30:09.086Z,10.98
2019-04-01T20:32:37.855Z,11.03
2019-04-01T20:35:08.371Z,10.85
2019-04-01T20:37:37.166Z,14.28
2019-04-01T20:40:06.947Z,12.45
2019-04-01T20:42:35.446Z,12.37
2019-04-01T20:45:07.167Z,11.57
2019-04-01T20:47:35.975Z,12.98
2019-04-01T20:50:06.478Z,12.05
2019-04-01T20:52:35.046Z,12.93
2019-04-01T20:55:04.064Z,11.95
2019-04-01T20:57:32.706Z,11.88
2019-04-01T21:00:03.140Z,12.05
2019-04-01T21:02:32.179Z,16.42
2019-04-01T21:05:02.654Z,10.30
2019-04-01T21:07:31.472Z,11.25
2019-04-01T21:09:59.980Z,10.30
2019-04-01T21:12:29.140Z,10.18
2019-04-01T21:14:57.989Z,9.68
2019-04-01T21:17:26.835Z,9.58
2019-04-01T21:19:55.556Z,10.58
2019-04-01T21:22:26.341Z,11.35
2019-04-01T21:24:55.174Z,9.05
2019-04-01T21:27:24.161Z,11.55
2019-04-01T21:29:53.196Z,11.75
2019-04-01T21:32:21.722Z,11.20
2019-04-01T21:34:50.729Z,11.28
2019-04-01T21:37:19.678Z,11.68
2019-04-01T21:39:48.285Z,11.65
2019-04-01T21:42:17.065Z,10.95
2019-04-01T21:44:46.960Z,11.63
2019-04-01T21:47:17.519Z,11.55
2019-04-01T21:49:46.373Z,12.18
2019-04-01T21:52:14.852Z,12.73
2019-04-01T21:54:43.886Z,11.18
2019-04-01T21:57:12.858Z,9.95
2019-04-01T21:59:41.248Z,12.33
2019-04-01T22:02:10.028Z,10.50
2019-04-01T22:04:38.663Z,9.60
2019-04-01T22:07:07.373Z,9.88
2019-04-01T22:09:36.386Z,9.65
2019-04-01T22:12:06.224Z,10.77
2019-04-01T22:14:34.690Z,10.93
2019-04-01T22:17:03.340Z,9.75
2019-04-01T22:19:32.294Z,10.08
2019-04-01T22:22:00.972Z,9.85
2019-04-01T22:24:29.670Z,11.55
2019-04-01T22:26:58.346Z,9.80
2019-04-01T22:29:27.066Z,9.65
2019-04-01T22:31:55.995Z,10.75
2019-04-01T22:34:24.725Z,10.35
2019-04-01T22:36:53.387Z,10.55
2019-04-01T22:39:27.276Z,11.40
2019-04-01T22:41:52.909Z,10.95
2019-04-01T22:44:23.113Z,11.95
2019-04-01T22:46:52.153Z,11.63
2019-04-01T22:49:23.001Z,11.63
2019-04-01T22:51:51.662Z,11.90
2019-04-01T22:54:20.098Z,12.28
2019-04-01T22:56:48.710Z,10.80
2019-04-01T22:59:17.400Z,10.75
2019-04-01T23:01:46.107Z,12.55
2019-04-01T23:04:14.489Z,12.00
2019-04-01T23:06:43.329Z,11.88
2019-04-01T23:09:12.273Z,11.65
2019-04-01T23:11:40.899Z,10.88
2019-04-01T23:14:09.237Z,10.20
2019-04-01T23:16:38.498Z,11.57
2019-04-01T23:19:06.901Z,10.60
2019-04-01T23:21:35.596Z,11.20
2019-04-01T23:24:04.170Z,11.15
2019-04-01T23:26:32.741Z,10.10
2019-04-01T23:29:02.419Z,11.22
2019-04-01T23:31:31.279Z,11.63
2019-04-01T23:33:59.895Z,10.53
2019-04-01T23:36:29.003Z,10.10
2019-04-01T23:38:57.952Z,10.40
2019-04-01T23:41:26.710Z,11.63
2019-04-01T23:43:55.486Z,12.10
2019-04-01T23:46:24.101Z,10.72
2019-04-01T23:48:52.662Z,11.78
2019-04-01T23:51:23.163Z,10.23
2019-04-01T23:53:51.669Z,11.28
2019-04-01T23:56:20.589Z,10.63
2019-04-01T23:58:49.030Z,12.03
